Time;durP1;ratioP1;P1;durP2;ratioP2;P2;SDS_P1;SDS_P2;PMS_P1;PMS_P2;Temp;Humidity;BMP_temperature;BMP_pressure;BME280_temperature;BME280_humidity;BME280_pressure;Samples;Min_cycle;Max_cycle;Signal;HPM_P1;HPM_P2
2022/11/14 00:00:08;;;;;;;10.30;7.67;;;4.70;99.90;;;;;;5123211;28;20441;-78
2022/11/14 00:02:33;;;;;;;12.30;8.20;;;4.70;99.90;;;;;;5122562;28;20204;-78
2022/11/14 00:04:59;;;;;;;10.60;9.10;;;4.70;99.90;;;;;;5122624;28;20419;-78
2022/11/14 00:07:24;;;;;;;17.53;7.80;;;4.60;99.90;;;;;;5113616;28;20172;-78
2022/11/14 00:09:50;;;;;;;18.07;8.10;;;4.60;99.90;;;;;;5113203;28;20244;-78
2022/11/14 00:12:15;;;;;;;14.47;8.13;;;4.60;99.90;;;;;;5112141;28;20571;-78
2022/11/14 00:14:41;;;;;;;11.20;7.20;;;4.50;99.90;;;;;;5112341;28;20405;-78
2022/11/14 00:17:06;;;;;;;10.43;6.90;;;4.50;99.90;;;;;;5111654;28;20177;-77
2022/11/14 00:19:32;;;;;;;11.47;6.20;;;4.40;99.90;;;;;;5112011;28;20191;-78
2022/11/14 00:21:59;;;;;;;11.73;6.50;;;4.40;99.90;;;;;;5113614;28;20662;-78
2022/11/14 00:24:24;;;;;;;13.83;7.23;;;4.40;99.90;;;;;;5115810;28;20664;-78
2022/11/14 00:26:50;;;;;;;12.40;7.40;;;4.40;99.90;;;;;;5116978;28;20489;-78
2022/11/14 00:29:15;;;;;;;14.23;7.57;;;4.40;99.90;;;;;;5116237;28;20251;-77
2022/11/14 00:31:41;;;;;;;11.23;7.90;;;4.40;99.90;;;;;;5115117;28;20192;-77
2022/11/14 00:34:08;;;;;;;17.50;8.70;;;4.50;99.90;;;;;;5116336;28;20537;-77
2022/11/14 00:36:33;;;;;;;9.67;6.90;;;4.50;99.90;;;;;;5116225;28;20895;-77
2022/11/14 00:38:59;;;;;;;11.77;7.60;;;4.50;99.90;;;;;;5116108;28;20456;-77
2022/11/14 00:41:25;;;;;;;11.17;7.33;;;4.60;99.90;;;;;;5116002;27;20246;-77
2022/11/14 00:43:50;;;;;;;11.90;7.87;;;4.60;99.90;;;;;;5127688;27;20238;-77
2022/11/14 00:46:16;;;;;;;10.90;7.33;;;4.60;99.90;;;;;;5119951;27;20172;-77
2022/11/14 00:48:42;;;;;;;10.13;7.37;;;4.60;99.90;;;;;;5137190;27;20168;-77
2022/11/14 00:51:07;;;;;;;12.87;7.23;;;4.60;99.90;;;;;;5118963;27;20192;-77
2022/11/14 00:53:33;;;;;;;13.67;7.90;;;4.50;99.90;;;;;;5116397;28;20177;-77
2022/11/14 00:55:59;;;;;;;12.60;8.17;;;4.50;99.90;;;;;;5114959;28;20414;-77
2022/11/14 00:58:24;;;;;;;11.73;7.60;;;4.50;99.90;;;;;;5115167;28;20556;-77
2022/11/14 01:00:51;;;;;;;13.67;8.30;;;4.50;99.90;;;;;;5113327;28;20193;-78
2022/11/14 01:03:16;;;;;;;10.13;6.97;;;4.50;99.90;;;;;;5115456;28;20523;-77
2022/11/14 01:05:44;;;;;;;12.20;7.00;;;4.40;99.90;;;;;;5113180;28;20419;-78
2022/11/14 01:08:12;;;;;;;12.60;7.60;;;4.40;99.90;;;;;;5115119;28;20168;-78
2022/11/14 01:10:39;;;;;;;11.20;8.17;;;4.40;99.90;;;;;;5115065;28;20969;-77
2022/11/14 01:13:05;;;;;;;9.87;7.00;;;4.40;99.90;;;;;;5114991;28;20422;-77
2022/11/14 01:15:30;;;;;;;10.40;8.00;;;4.40;99.90;;;;;;5114447;28;20450;-77
2022/11/14 01:17:56;;;;;;;11.53;6.83;;;4.30;99.90;;;;;;5115112;28;20244;-77
2022/11/14 01:20:21;;;;;;;9.20;6.77;;;4.30;99.90;;;;;;5113386;28;20168;-78
2022/11/14 01:22:47;;;;;;;8.97;6.33;;;4.30;99.90;;;;;;5114532;28;20192;-78
2022/11/14 01:25:12;;;;;;;10.17;7.80;;;4.30;99.90;;;;;;5113739;28;20161;-78
2022/11/14 01:27:38;;;;;;;11.70;7.70;;;4.30;99.90;;;;;;5113901;28;20180;-78
2022/11/14 01:30:04;;;;;;;15.60;8.63;;;4.30;99.90;;;;;;5113775;28;20641;-78
2022/11/14 01:32:29;;;;;;;7.27;6.20;;;4.40;99.90;;;;;;5112972;28;20189;-78
2022/11/14 01:34:55;;;;;;;13.00;7.60;;;4.40;99.90;;;;;;5113579;28;20471;-78
2022/11/14 01:37:21;;;;;;;14.47;7.73;;;4.40;99.90;;;;;;5114307;28;20160;-78
2022/11/14 01:39:46;;;;;;;13.67;7.47;;;4.40;99.90;;;;;;5113848;28;20177;-78
2022/11/14 01:42:12;;;;;;;10.30;6.50;;;4.40;99.90;;;;;;5112769;28;20208;-78
2022/11/14 01:44:44;;;;;;;11.63;6.90;;;4.40;99.90;;;;;;5112471;28;20161;-78
2022/11/14 01:47:11;;;;;;;11.43;6.70;;;4.40;99.90;;;;;;5114070;28;20178;-78
2022/11/14 01:49:44;;;;;;;12.93;7.37;;;4.40;99.90;;;;;;5112779;28;20410;-78
2022/11/14 01:52:13;;;;;;;12.67;7.33;;;4.30;99.90;;;;;;5115052;28;20848;-78
2022/11/14 01:54:45;;;;;;;8.10;6.30;;;4.30;99.90;;;;;;5127735;27;20403;-78
2022/11/14 01:57:13;;;;;;;9.10;6.03;;;4.40;99.90;;;;;;5113594;28;20418;-77
2022/11/14 01:59:47;;;;;;;13.23;6.60;;;4.50;99.90;;;;;;5115585;28;20947;-78
2022/11/14 02:02:18;;;;;;;11.00;7.30;;;4.40;99.90;;;;;;5114802;28;20495;-78
2022/11/14 02:04:47;;;;;;;15.53;7.10;;;4.40;99.90;;;;;;5126479;28;20392;-77
2022/11/14 02:07:14;;;;;;;9.83;6.27;;;4.40;99.90;;;;;;5126920;28;20813;-78
2022/11/14 02:09:44;;;;;;;10.90;7.50;;;4.30;99.90;;;;;;5126894;28;20439;-78
2022/11/14 02:12:13;;;;;;;11.20;6.57;;;4.30;99.90;;;;;;5126083;28;20457;-77
2022/11/14 02:14:40;;;;;;;9.63;6.30;;;4.30;99.90;;;;;;5126851;28;20403;-79
2022/11/14 02:17:05;;;;;;;8.10;5.67;;;4.40;99.90;;;;;;5126242;28;20420;-77
2022/11/14 02:19:49;;;;;;;10.37;6.63;;;4.50;99.90;;;;;;5120753;28;20509;-78
2022/11/14 02:22:15;;;;;;;10.10;6.53;;;4.50;99.90;;;;;;5114291;28;20609;-78
2022/11/14 02:24:41;;;;;;;10.73;6.30;;;4.60;99.90;;;;;;5114609;28;20406;-78
2022/11/14 02:27:08;;;;;;;9.83;6.13;;;4.60;99.90;;;;;;5116357;28;20164;-77
2022/11/14 02:29:34;;;;;;;9.87;6.60;;;4.60;99.90;;;;;;5122010;28;20411;-78
2022/11/14 02:32:00;;;;;;;12.23;8.03;;;4.60;99.90;;;;;;5122854;28;20949;-78
2022/11/14 02:34:26;;;;;;;9.90;6.73;;;4.60;99.90;;;;;;5121794;28;20774;-77
2022/11/14 02:36:51;;;;;;;7.67;6.70;;;4.60;99.90;;;;;;5117443;28;20410;-78
2022/11/14 02:39:17;;;;;;;9.70;6.57;;;4.50;99.90;;;;;;5127090;28;20192;-78
2022/11/14 02:41:42;;;;;;;10.93;6.37;;;4.40;99.90;;;;;;5125122;28;20192;-78
2022/11/14 02:44:08;;;;;;;8.17;5.57;;;4.40;99.90;;;;;;5125307;28;20179;-76
2022/11/14 02:46:34;;;;;;;8.43;6.50;;;4.30;99.90;;;;;;5121351;28;20169;-77
2022/11/14 02:48:59;;;;;;;9.50;5.50;;;4.40;99.90;;;;;;5116701;28;20165;-77
2022/11/14 02:51:25;;;;;;;10.40;6.00;;;4.40;99.90;;;;;;5114351;28;20423;-77
2022/11/14 02:53:51;;;;;;;9.80;5.90;;;4.40;99.90;;;;;;5112389;28;20370;-78
2022/11/14 02:56:17;;;;;;;10.93;5.80;;;4.30;99.90;;;;;;5113632;28;20171;-78
2022/11/14 02:58:42;;;;;;;6.57;5.43;;;4.30;99.90;;;;;;5114647;27;20164;-78
2022/11/14 03:01:08;;;;;;;9.97;5.90;;;4.30;99.90;;;;;;5125738;27;20458;-78
2022/11/14 03:03:33;;;;;;;10.00;6.20;;;4.30;99.90;;;;;;5112558;28;20249;-77
2022/11/14 03:06:00;;;;;;;9.40;6.27;;;4.30;99.90;;;;;;5111130;28;20165;-77
2022/11/14 03:08:26;;;;;;;7.70;5.77;;;4.30;99.90;;;;;;5112927;28;20215;-78
2022/11/14 03:10:52;;;;;;;9.00;5.47;;;4.20;99.90;;;;;;5112466;28;20426;-78
2022/11/14 03:13:18;;;;;;;11.03;6.13;;;4.10;99.90;;;;;;5112597;28;20407;-77
2022/11/14 03:15:43;;;;;;;10.43;7.00;;;4.10;99.90;;;;;;5110788;28;21000;-77
2022/11/14 03:18:08;;;;;;;8.20;6.03;;;4.00;99.90;;;;;;5111434;28;20727;-78
2022/11/14 03:20:34;;;;;;;6.60;5.47;;;4.00;99.90;;;;;;5111304;28;20241;-77
2022/11/14 03:22:59;;;;;;;8.67;5.33;;;4.00;99.90;;;;;;5125170;28;20202;-77
2022/11/14 03:25:25;;;;;;;14.30;6.83;;;4.10;99.90;;;;;;5123700;28;20177;-78
2022/11/14 03:27:51;;;;;;;8.97;5.90;;;4.00;99.90;;;;;;5123898;28;20173;-77
2022/11/14 03:30:16;;;;;;;9.53;6.60;;;4.00;99.90;;;;;;5123182;28;20593;-78
2022/11/14 03:32:42;;;;;;;10.20;6.40;;;4.00;99.90;;;;;;5123409;28;20179;-76
2022/11/14 03:35:08;;;;;;;7.10;6.40;;;4.00;99.90;;;;;;5123942;28;20226;-77
2022/11/14 03:37:34;;;;;;;11.23;7.10;;;3.90;99.90;;;;;;5124373;28;20169;-77
2022/11/14 03:40:00;;;;;;;8.40;7.10;;;3.90;99.90;;;;;;5125192;28;20492;-77
2022/11/14 03:42:25;;;;;;;8.00;6.80;;;3.90;99.90;;;;;;5119312;28;20519;-77
2022/11/14 03:44:51;;;;;;;12.10;6.93;;;3.90;99.90;;;;;;5113905;28;20165;-78
2022/11/14 03:47:16;;;;;;;7.10;5.47;;;3.90;99.90;;;;;;5113823;28;20167;-78
2022/11/14 03:49:43;;;;;;;8.13;5.13;;;3.90;99.90;;;;;;5112451;28;20208;-78
2022/11/14 03:52:10;;;;;;;10.87;7.37;;;3.90;99.90;;;;;;5121582;28;20180;-77
2022/11/14 03:54:35;;;;;;;16.67;8.07;;;3.80;99.90;;;;;;5120571;28;20471;-77
2022/11/14 03:57:01;;;;;;;11.30;6.70;;;3.80;99.90;;;;;;5112835;28;20418;-77
2022/11/14 03:59:26;;;;;;;13.97;7.63;;;3.80;99.90;;;;;;5115792;28;20207;-77
2022/11/14 04:01:52;;;;;;;7.47;6.40;;;3.90;99.90;;;;;;5115693;28;20200;-78
2022/11/14 04:04:17;;;;;;;9.40;6.77;;;3.80;99.90;;;;;;5115606;28;20650;-77
2022/11/14 04:06:43;;;;;;;7.93;5.40;;;3.80;99.90;;;;;;5114681;28;20172;-78
2022/11/14 04:09:09;;;;;;;9.50;6.40;;;3.80;99.90;;;;;;5116301;28;20168;-77
2022/11/14 04:11:35;;;;;;;7.97;6.63;;;3.70;99.90;;;;;;5128593;27;20433;-76
2022/11/14 04:14:00;;;;;;;11.13;6.40;;;3.70;99.90;;;;;;5118862;27;20412;-77
2022/11/14 04:16:26;;;;;;;11.80;6.83;;;3.70;99.90;;;;;;5117224;28;20195;-77
2022/11/14 04:18:51;;;;;;;11.17;6.77;;;3.70;99.90;;;;;;5116152;28;20203;-77
2022/11/14 04:21:17;;;;;;;14.73;7.53;;;3.70;99.90;;;;;;5116421;28;20697;-79
2022/11/14 04:23:42;;;;;;;11.47;6.50;;;3.70;99.90;;;;;;5122514;28;20229;-77
2022/11/14 04:26:08;;;;;;;9.57;6.40;;;3.80;99.90;;;;;;5118635;28;20173;-77
2022/11/14 04:28:33;;;;;;;9.93;7.07;;;3.70;99.90;;;;;;5121245;28;20229;-77
2022/11/14 04:30:59;;;;;;;10.77;6.97;;;3.70;99.90;;;;;;5114208;28;20220;-76
2022/11/14 04:33:25;;;;;;;9.47;6.30;;;3.70;99.90;;;;;;5114145;28;20641;-77
2022/11/14 04:35:50;;;;;;;10.40;7.20;;;3.70;99.90;;;;;;5114831;28;20226;-77
2022/11/14 04:38:16;;;;;;;11.43;7.17;;;3.70;99.90;;;;;;5113953;28;20399;-77
2022/11/14 04:40:50;;;;;;;13.67;6.50;;;3.60;99.90;;;;;;5127822;28;20196;-79
2022/11/14 04:43:17;;;;;;;11.30;6.57;;;3.70;99.90;;;;;;5126147;28;20164;-79
2022/11/14 04:45:42;;;;;;;8.00;6.70;;;3.70;99.90;;;;;;5118248;28;20425;-78
2022/11/14 04:48:08;;;;;;;14.13;7.60;;;3.70;99.90;;;;;;5116672;28;20764;-77
2022/11/14 04:50:33;;;;;;;10.23;7.13;;;3.70;99.90;;;;;;5114988;28;20699;-77
2022/11/14 04:52:59;;;;;;;16.33;7.50;;;3.60;99.90;;;;;;5118594;28;20737;-78
2022/11/14 04:55:24;;;;;;;13.30;7.43;;;3.60;99.90;;;;;;5118737;28;20198;-77
2022/11/14 04:57:55;;;;;;;13.67;7.10;;;3.60;99.90;;;;;;5116268;28;20177;-77
2022/11/14 05:00:21;;;;;;;9.50;7.10;;;3.60;99.90;;;;;;5115085;28;20166;-77
2022/11/14 05:02:46;;;;;;;13.33;6.23;;;3.50;99.90;;;;;;5113467;28;20874;-77
2022/11/14 05:05:12;;;;;;;8.73;5.70;;;3.50;99.90;;;;;;5115025;28;20403;-78
2022/11/14 05:07:37;;;;;;;9.60;6.40;;;3.50;99.90;;;;;;5114599;28;20268;-77
2022/11/14 05:10:04;;;;;;;12.73;6.50;;;3.50;99.90;;;;;;5114496;28;20530;-77
2022/11/14 05:12:29;;;;;;;9.60;6.37;;;3.60;99.90;;;;;;5114626;28;20192;-77
2022/11/14 05:14:55;;;;;;;8.93;5.90;;;3.60;99.90;;;;;;5114274;28;20547;-76
2022/11/14 05:17:21;;;;;;;18.37;7.07;;;3.60;99.90;;;;;;5113573;28;20187;-77
2022/11/14 05:19:46;;;;;;;8.00;5.80;;;3.60;99.90;;;;;;5114602;28;20177;-77
2022/11/14 05:22:12;;;;;;;8.83;5.47;;;3.60;99.90;;;;;;5116678;27;20197;-78
2022/11/14 05:24:40;;;;;;;8.97;6.20;;;3.60;99.90;;;;;;5114876;28;20176;-77
2022/11/14 05:27:05;;;;;;;13.80;6.30;;;3.60;99.90;;;;;;5115714;28;20179;-78
2022/11/14 05:29:31;;;;;;;8.63;5.70;;;3.60;99.90;;;;;;5115833;28;20410;-78
2022/11/14 05:31:57;;;;;;;7.57;5.63;;;3.50;99.90;;;;;;5116539;28;20199;-78
2022/11/14 05:34:23;;;;;;;12.40;6.40;;;3.60;99.90;;;;;;5108157;28;20644;-78
2022/11/14 05:36:48;;;;;;;9.13;6.17;;;3.60;99.90;;;;;;5106249;28;20221;-78
2022/11/14 05:39:15;;;;;;;16.93;6.97;;;3.60;99.90;;;;;;5095533;28;20506;-78
2022/11/14 05:41:43;;;;;;;10.53;7.40;;;3.60;99.90;;;;;;5114126;28;20204;-77
2022/11/14 05:44:08;;;;;;;13.70;6.73;;;3.60;99.90;;;;;;5096935;28;20417;-77
2022/11/14 05:46:34;;;;;;;10.37;5.50;;;3.60;99.90;;;;;;5097116;28;20403;-78
2022/11/14 05:49:00;;;;;;;8.70;5.77;;;3.60;99.90;;;;;;5115917;28;20165;-78
2022/11/14 05:51:25;;;;;;;10.80;6.93;;;3.60;99.90;;;;;;5095792;28;20189;-77
2022/11/14 05:53:51;;;;;;;10.63;6.57;;;3.50;99.90;;;;;;5095844;28;20317;-78
2022/11/14 05:56:16;;;;;;;8.43;5.00;;;3.50;99.90;;;;;;5116348;28;20169;-77
2022/11/14 05:58:42;;;;;;;8.83;6.03;;;3.50;99.90;;;;;;5105929;28;20638;-77
2022/11/14 06:01:12;;;;;;;9.67;5.50;;;3.40;99.90;;;;;;5122554;28;20256;-77
2022/11/14 06:03:43;;;;;;;9.33;6.33;;;3.40;99.90;;;;;;5095004;28;20166;-78
2022/11/14 06:06:13;;;;;;;7.50;5.60;;;3.40;99.90;;;;;;5093637;28;20404;-78
2022/11/14 06:08:39;;;;;;;9.03;5.50;;;3.40;99.90;;;;;;5093550;28;20421;-78
2022/11/14 06:11:07;;;;;;;6.53;5.63;;;3.40;99.90;;;;;;5098273;28;20510;-77
2022/11/14 06:13:33;;;;;;;14.20;5.63;;;3.40;99.90;;;;;;5110914;28;20502;-77
2022/11/14 06:16:04;;;;;;;9.37;5.40;;;3.30;99.90;;;;;;5100825;28;20414;-76
2022/11/14 06:18:30;;;;;;;7.90;5.77;;;3.30;99.90;;;;;;5116480;28;20545;-77
2022/11/14 06:21:03;;;;;;;11.40;4.43;;;3.20;99.90;;;;;;5096953;28;20554;-77
2022/11/14 06:23:28;;;;;;;7.57;5.00;;;3.30;99.90;;;;;;5113970;28;20943;-78
2022/11/14 06:25:59;;;;;;;10.83;5.33;;;3.30;99.90;;;;;;5120985;28;20418;-78
2022/11/14 06:28:25;;;;;;;9.40;6.20;;;3.30;99.90;;;;;;5113158;28;20259;-79
2022/11/14 06:30:50;;;;;;;8.20;5.73;;;3.30;99.90;;;;;;5114119;28;20689;-78
2022/11/14 06:33:16;;;;;;;9.57;5.40;;;3.20;99.90;;;;;;5120371;27;20173;-78
2022/11/14 06:35:41;;;;;;;12.03;7.43;;;3.20;99.90;;;;;;5125197;27;20578;-78
2022/11/14 06:38:07;;;;;;;7.50;5.73;;;3.10;99.90;;;;;;5134366;27;20189;-77
2022/11/14 06:40:32;;;;;;;10.33;5.40;;;3.10;99.90;;;;;;5122515;27;20587;-76
2022/11/14 06:42:58;;;;;;;7.67;6.70;;;3.00;99.90;;;;;;5113319;28;20287;-77
2022/11/14 06:45:23;;;;;;;10.83;6.70;;;3.00;99.90;;;;;;5114125;28;20176;-78
2022/11/14 06:47:49;;;;;;;9.70;6.37;;;3.00;99.90;;;;;;5119312;28;20168;-78
2022/11/14 06:50:14;;;;;;;10.70;6.83;;;3.00;99.90;;;;;;5113807;28;20161;-78
2022/11/14 06:52:40;;;;;;;9.27;6.00;;;3.00;99.90;;;;;;5118028;28;20169;-77
2022/11/14 06:55:05;;;;;;;13.80;6.03;;;3.00;99.90;;;;;;5110959;28;20179;-76
2022/11/14 06:57:31;;;;;;;7.67;5.10;;;3.00;99.90;;;;;;5112037;28;20177;-77
2022/11/14 06:59:57;;;;;;;9.13;7.03;;;3.10;99.90;;;;;;5112717;28;20757;-77
2022/11/14 07:02:22;;;;;;;7.47;5.67;;;3.10;99.90;;;;;;5113613;28;20222;-77
2022/11/14 07:04:48;;;;;;;11.50;6.80;;;3.20;99.90;;;;;;5111333;28;20251;-76
2022/11/14 07:07:13;;;;;;;11.13;7.67;;;3.30;99.90;;;;;;5113112;28;20161;-78
2022/11/14 07:09:39;;;;;;;9.17;6.40;;;3.40;99.90;;;;;;5113372;28;20214;-78
2022/11/14 07:12:04;;;;;;;15.03;7.40;;;3.50;99.90;;;;;;5116930;28;20603;-78
2022/11/14 07:14:30;;;;;;;18.33;8.90;;;3.60;99.90;;;;;;5112128;28;20572;-77
2022/11/14 07:16:57;;;;;;;14.73;8.27;;;3.70;99.90;;;;;;5114536;28;20203;-78
2022/11/14 07:19:22;;;;;;;16.60;10.00;;;3.80;99.90;;;;;;5122981;28;20184;-77
2022/11/14 07:21:48;;;;;;;15.57;8.90;;;4.00;99.90;;;;;;5112082;28;20458;-78
2022/11/14 07:24:13;;;;;;;15.70;9.43;;;4.10;99.90;;;;;;5112440;28;20204;-76
2022/11/14 07:26:39;;;;;;;13.23;9.30;;;4.20;99.90;;;;;;5114150;28;20641;-77
2022/11/14 07:29:04;;;;;;;13.43;9.73;;;4.30;99.90;;;;;;5111193;28;20172;-77
2022/11/14 07:31:30;;;;;;;16.20;10.07;;;4.40;99.90;;;;;;5115506;28;20268;-78
2022/11/14 07:33:55;;;;;;;15.03;9.27;;;4.50;99.90;;;;;;5116778;28;20177;-77
2022/11/14 07:36:22;;;;;;;15.47;10.83;;;4.60;99.90;;;;;;5120956;28;20267;-77
2022/11/14 07:38:47;;;;;;;16.30;9.27;;;4.70;99.90;;;;;;5116491;28;20289;-76
2022/11/14 07:41:14;;;;;;;19.37;10.73;;;4.80;99.90;;;;;;5115022;28;20476;-77
2022/11/14 07:43:41;;;;;;;14.53;9.80;;;4.90;99.90;;;;;;5116482;28;20514;-77
2022/11/14 07:46:12;;;;;;;15.63;9.70;;;5.00;99.90;;;;;;5125945;27;20475;-76
2022/11/14 07:48:37;;;;;;;19.00;10.00;;;5.10;99.90;;;;;;5116157;28;20402;-76
2022/11/14 07:51:09;;;;;;;18.70;10.53;;;5.20;99.90;;;;;;5115246;28;20488;-77
2022/11/14 07:53:35;;;;;;;18.70;9.80;;;5.30;99.90;;;;;;5116363;28;20184;-77
2022/11/14 07:56:03;;;;;;;16.67;10.23;;;5.30;99.90;;;;;;5115632;28;21119;-77
2022/11/14 07:58:29;;;;;;;17.13;11.50;;;5.40;99.90;;;;;;5117410;28;20165;-76
2022/11/14 08:00:55;;;;;;;16.63;9.80;;;5.50;99.90;;;;;;5116737;28;20422;-77
2022/11/14 08:03:21;;;;;;;24.13;11.50;;;5.50;99.90;;;;;;5116584;28;20176;-78
2022/11/14 08:05:46;;;;;;;25.60;12.20;;;5.60;99.90;;;;;;5117172;28;20173;-78
2022/11/14 08:08:11;;;;;;;21.10;12.37;;;5.70;99.90;;;;;;5116880;28;20183;-77
2022/11/14 08:10:37;;;;;;;21.90;10.70;;;5.80;99.90;;;;;;5116095;28;20192;-77
2022/11/14 08:13:04;;;;;;;18.97;11.10;;;5.80;99.90;;;;;;5115621;28;20701;-77
2022/11/14 08:15:31;;;;;;;17.40;12.23;;;5.90;99.90;;;;;;5117333;28;20165;-76
2022/11/14 08:18:01;;;;;;;17.23;10.07;;;5.90;99.90;;;;;;5117678;28;20413;-77
2022/11/14 08:20:27;;;;;;;20.50;11.07;;;6.00;99.90;;;;;;5115534;28;20782;-77
2022/11/14 08:23:00;;;;;;;16.20;10.97;;;6.10;99.90;;;;;;5116005;28;20519;-78
2022/11/14 08:25:25;;;;;;;17.80;10.90;;;6.10;99.90;;;;;;5115596;28;20407;-77
2022/11/14 08:27:52;;;;;;;19.67;10.47;;;6.10;99.90;;;;;;5115688;28;20422;-78
2022/11/14 08:30:18;;;;;;;21.50;12.00;;;6.10;99.90;;;;;;5116064;28;20169;-78
2022/11/14 08:32:43;;;;;;;20.20;10.83;;;6.20;99.90;;;;;;5115145;28;20410;-78
2022/11/14 08:35:08;;;;;;;17.57;10.43;;;6.20;99.90;;;;;;5115755;28;20563;-77
2022/11/14 08:37:34;;;;;;;22.80;11.20;;;6.30;99.90;;;;;;5115081;28;20249;-77
2022/11/14 08:39:59;;;;;;;24.80;11.60;;;6.30;99.90;;;;;;5115187;28;20252;-77
2022/11/14 08:42:25;;;;;;;16.70;9.10;;;6.30;99.90;;;;;;5114560;28;20192;-78
2022/11/14 08:44:50;;;;;;;18.60;11.60;;;6.40;99.90;;;;;;5115475;28;20183;-78
2022/11/14 08:47:16;;;;;;;14.33;9.50;;;6.40;99.90;;;;;;5116400;28;20164;-77
2022/11/14 08:49:42;;;;;;;23.77;13.10;;;6.50;99.90;;;;;;5115370;28;20179;-77
2022/11/14 08:52:07;;;;;;;19.43;11.40;;;6.50;99.90;;;;;;5115045;28;20195;-78
2022/11/14 08:54:33;;;;;;;22.93;10.83;;;6.50;99.90;;;;;;5115296;28;20169;-77
2022/11/14 08:56:58;;;;;;;21.67;10.63;;;6.60;99.90;;;;;;5117496;27;20169;-77
2022/11/14 08:59:24;;;;;;;22.97;11.33;;;6.60;99.90;;;;;;5114695;28;20245;-78
2022/11/14 09:01:50;;;;;;;20.90;12.20;;;6.60;99.90;;;;;;5115690;28;20222;-77
2022/11/14 09:04:15;;;;;;;21.80;11.20;;;6.70;99.90;;;;;;5115182;28;20165;-77
2022/11/14 09:06:41;;;;;;;22.70;10.50;;;6.70;99.90;;;;;;5117037;28;20457;-78
2022/11/14 09:09:06;;;;;;;23.70;11.53;;;6.80;99.90;;;;;;5114934;28;20168;-77
2022/11/14 09:11:32;;;;;;;20.07;11.37;;;6.80;99.90;;;;;;5115487;28;20201;-77
2022/11/14 09:13:58;;;;;;;24.10;12.03;;;6.80;99.90;;;;;;5115951;28;20165;-75
2022/11/14 09:16:23;;;;;;;20.97;11.10;;;6.80;99.90;;;;;;5114577;28;20165;-76
2022/11/14 09:18:49;;;;;;;21.60;10.40;;;6.80;99.90;;;;;;5114750;28;20248;-76
2022/11/14 09:21:14;;;;;;;19.77;11.43;;;6.80;99.90;;;;;;5114137;28;20221;-75
2022/11/14 09:23:40;;;;;;;16.60;9.40;;;6.90;99.90;;;;;;5114370;28;20189;-75
2022/11/14 09:26:07;;;;;;;17.90;9.87;;;6.90;99.90;;;;;;5114313;28;20177;-76
2022/11/14 09:28:33;;;;;;;18.23;9.63;;;6.90;99.90;;;;;;5114109;28;20525;-76
2022/11/14 09:31:05;;;;;;;24.27;11.10;;;6.90;99.90;;;;;;5108195;28;20858;-76
2022/11/14 09:33:31;;;;;;;22.83;11.60;;;6.90;99.90;;;;;;5101562;28;20412;-77
2022/11/14 09:35:58;;;;;;;23.30;10.00;;;6.90;99.90;;;;;;5105631;28;20410;-76
2022/11/14 09:38:24;;;;;;;19.87;9.33;;;6.90;99.90;;;;;;5103118;28;20406;-76
2022/11/14 09:41:08;;;;;;;22.93;11.70;;;6.90;99.90;;;;;;5105833;28;20435;-76
2022/11/14 09:44:01;;;;;;;19.90;8.40;;;7.00;99.90;;;;;;5105764;28;20169;-76
2022/11/14 09:46:36;;;;;;;17.70;8.30;;;7.00;99.90;;;;;;5113922;28;20417;-75
2022/11/14 09:49:02;;;;;;;17.37;10.37;;;7.10;99.90;;;;;;5113923;28;20398;-75
2022/11/14 09:51:33;;;;;;;17.23;8.77;;;7.10;99.90;;;;;;5113451;28;20803;-75
2022/11/14 09:54:17;;;;;;;15.50;10.47;;;7.10;99.90;;;;;;5097071;28;20470;-75
2022/11/14 09:56:43;;;;;;;14.40;8.60;;;7.20;99.90;;;;;;5113923;28;20410;-75
2022/11/14 09:59:11;;;;;;;17.53;9.90;;;7.30;99.90;;;;;;5114353;28;20420;-75
2022/11/14 10:02:04;;;;;;;18.80;9.60;;;7.30;99.90;;;;;;5113939;28;20283;-75
2022/11/14 10:04:48;;;;;;;11.70;7.33;;;7.30;99.90;;;;;;5112133;28;20414;-74
2022/11/14 10:07:48;;;;;;;18.30;9.80;;;7.30;99.90;;;;;;5113683;28;20744;-75
2022/11/14 10:10:36;;;;;;;15.30;7.93;;;7.50;99.90;;;;;;5124288;27;20403;-76
2022/11/14 10:13:27;;;;;;;17.30;9.00;;;7.60;99.90;;;;;;5113905;28;20441;-75
2022/11/14 10:16:11;;;;;;;21.13;9.80;;;7.70;99.90;;;;;;5113170;28;20952;-75
2022/11/14 10:19:01;;;;;;;10.83;7.73;;;7.80;99.90;;;;;;5093244;28;20899;-75
2022/11/14 10:21:42;;;;;;;16.00;8.30;;;7.90;99.90;;;;;;5092930;28;20797;-75
2022/11/14 10:24:33;;;;;;;28.13;7.83;;;7.80;99.90;;;;;;5093066;28;21037;-75
2022/11/14 10:27:19;;;;;;;12.90;7.70;;;7.80;99.90;;;;;;5093245;28;20423;-75
2022/11/14 10:30:02;;;;;;;15.60;7.00;;;7.90;99.90;;;;;;5108964;28;20407;-75
2022/11/14 10:32:45;;;;;;;14.33;8.80;;;7.90;99.90;;;;;;5113181;28;20790;-75
2022/11/14 10:35:31;;;;;;;12.20;7.33;;;8.00;99.90;;;;;;5113159;28;20407;-75
2022/11/14 10:38:06;;;;;;;14.30;7.33;;;8.10;99.90;;;;;;5091492;28;20506;-75
2022/11/14 10:40:48;;;;;;;10.83;7.00;;;8.20;99.90;;;;;;5091786;28;20431;-75
2022/11/14 10:43:32;;;;;;;11.37;7.53;;;8.20;99.90;;;;;;5091596;28;20411;-77
2022/11/14 10:46:06;;;;;;;14.17;6.80;;;8.20;99.90;;;;;;5093747;28;20486;-77
2022/11/14 10:48:41;;;;;;;16.90;7.30;;;8.30;99.90;;;;;;5112671;28;20399;-77
2022/11/14 10:51:13;;;;;;;11.83;8.00;;;8.30;99.90;;;;;;5112707;28;20426;-75
2022/11/14 10:54:14;;;;;;;11.70;6.90;;;8.20;99.90;;;;;;5112573;28;20490;-75
2022/11/14 10:56:48;;;;;;;16.80;8.70;;;8.10;99.90;;;;;;5112187;28;20399;-75
2022/11/14 10:59:14;;;;;;;15.23;8.40;;;8.00;99.90;;;;;;5112569;28;20421;-75
2022/11/14 11:01:42;;;;;;;14.20;7.60;;;8.00;99.90;;;;;;5112489;28;20451;-75
2022/11/14 11:04:29;;;;;;;15.27;11.13;;;8.10;99.90;;;;;;5112778;28;20168;-75
2022/11/14 11:07:06;;;;;;;19.47;9.97;;;8.20;99.90;;;;;;5111441;28;20447;-75
2022/11/14 11:12:20;;;;;;;14.20;7.70;;;8.40;99.90;;;;;;5096754;28;20460;-75
2022/11/14 11:14:48;;;;;;;14.50;8.60;;;8.40;99.90;;;;;;5113489;28;20422;-75
2022/11/14 11:17:15;;;;;;;21.23;10.60;;;8.40;99.90;;;;;;5123865;28;20418;-76
2022/11/14 11:19:41;;;;;;;13.80;9.20;;;8.50;99.90;;;;;;5111378;28;20415;-75
2022/11/14 11:22:36;;;;;;;18.90;11.03;;;8.60;99.90;;;;;;5112277;28;20495;-76
2022/11/14 11:25:20;;;;;;;19.73;10.37;;;8.60;99.90;;;;;;5112029;28;20418;-76
2022/11/14 11:27:48;;;;;;;11.80;8.37;;;8.70;99.90;;;;;;5113084;28;20435;-75
2022/11/14 11:30:21;;;;;;;13.73;10.00;;;9.10;99.90;;;;;;5112101;28;20413;-76
2022/11/14 11:32:47;;;;;;;16.87;9.17;;;9.80;99.90;;;;;;5112767;28;20409;-76
2022/11/14 11:35:16;;;;;;;14.17;9.37;;;9.90;99.90;;;;;;5111892;28;20430;-75
2022/11/14 11:37:47;;;;;;;19.03;9.80;;;9.70;99.90;;;;;;5112823;28;20559;-75
2022/11/14 11:40:18;;;;;;;13.87;9.17;;;9.40;99.90;;;;;;5112007;28;20795;-75
2022/11/14 11:43:02;;;;;;;15.50;8.70;;;9.40;99.90;;;;;;5111949;28;20821;-76
2022/11/14 11:45:31;;;;;;;20.07;10.53;;;9.20;99.90;;;;;;5111819;28;20505;-75
2022/11/14 11:48:16;;;;;;;15.93;9.40;;;9.10;99.90;;;;;;5112370;28;20436;-75
2022/11/14 11:50:42;;;;;;;19.17;10.40;;;8.90;99.90;;;;;;5112478;28;20965;-75
2022/11/14 11:53:39;;;;;;;18.37;10.20;;;8.80;99.90;;;;;;5094252;28;20415;-75
2022/11/14 11:56:10;;;;;;;17.87;10.17;;;8.80;99.90;;;;;;5094106;28;20933;-74
2022/11/14 11:58:57;;;;;;;14.10;8.90;;;8.80;99.90;;;;;;5111931;28;20438;-75
2022/11/14 12:01:23;;;;;;;23.80;10.30;;;9.00;99.90;;;;;;5112022;28;20490;-74
2022/11/14 12:03:51;;;;;;;18.10;10.00;;;9.10;99.90;;;;;;5112771;28;20930;-74
2022/11/14 12:06:26;;;;;;;20.27;10.97;;;9.20;99.90;;;;;;5093747;28;20807;-76
2022/11/14 12:09:12;;;;;;;20.63;9.97;;;9.40;99.90;;;;;;5111926;28;20391;-75
2022/11/14 12:11:42;;;;;;;17.47;9.50;;;9.50;99.90;;;;;;5073190;28;20812;-75
2022/11/14 12:14:36;;;;;;;21.10;11.43;;;9.60;99.90;;;;;;5091363;28;20965;-76
2022/11/14 12:17:21;;;;;;;18.43;10.87;;;9.90;99.90;;;;;;5073542;28;20423;-75
2022/11/14 12:20:08;;;;;;;14.63;9.20;;;10.20;99.90;;;;;;5095128;28;20755;-75
2022/11/14 12:23:04;;;;;;;17.30;9.77;;;10.80;99.90;;;;;;5106114;28;20461;-74
2022/11/14 12:25:40;;;;;;;25.23;10.93;;;10.70;99.90;;;;;;5115068;28;20425;-75
2022/11/14 12:28:20;;;;;;;13.83;9.27;;;10.60;99.90;;;;;;5120168;27;20429;-75
2022/11/14 12:30:49;;;;;;;18.30;9.97;;;10.30;99.90;;;;;;5120188;27;20954;-75
2022/11/14 12:33:22;;;;;;;18.77;10.30;;;10.30;99.90;;;;;;5115219;27;20403;-75
2022/11/14 12:36:00;;;;;;;18.37;9.53;;;10.60;99.90;;;;;;5114955;28;20505;-75
2022/11/14 12:38:31;;;;;;;19.97;10.43;;;10.60;99.90;;;;;;5115179;28;20404;-75
2022/11/14 12:41:00;;;;;;;16.93;11.00;;;10.40;99.90;;;;;;5114840;28;20446;-74
2022/11/14 12:43:34;;;;;;;16.80;9.67;;;10.90;99.90;;;;;;5113885;28;20414;-75
2022/11/14 12:46:05;;;;;;;22.73;9.80;;;11.40;99.90;;;;;;5114791;28;20451;-75
2022/11/14 12:48:33;;;;;;;15.67;9.60;;;11.30;99.90;;;;;;5114829;27;20419;-76
2022/11/14 12:51:00;;;;;;;17.30;9.63;;;10.90;99.90;;;;;;5114845;28;20502;-76
2022/11/14 12:53:38;;;;;;;18.20;11.43;;;10.00;99.90;;;;;;5115051;28;20410;-76
2022/11/14 12:56:22;;;;;;;21.43;11.17;;;9.60;99.90;;;;;;5115203;28;20390;-76